sensor_id;sensor_type;location;lat;lon;timestamp;P1;durP1;ratioP1;P2;durP2;ratioP2
23123;SDS011;11731;48.592;8.858;2023-11-18T00:06:40;3.47;;;3.17;;
23123;SDS011;11731;48.592;8.858;2023-11-18T00:09:09;6.10;;;3.60;;
23123;SDS011;11731;48.592;8.858;2023-11-18T00:11:40;5.57;;;3.83;;
23123;SDS011;11731;48.592;8.858;2023-11-18T00:20:53;5.43;;;3.40;;
23123;SDS011;11731;48.592;8.858;2023-11-18T00:23:32;7.27;;;3.63;;
23123;SDS011;11731;48.592;8.858;2023-11-18T00:25:59;4.03;;;3.20;;
23123;SDS011;11731;48.592;8.858;2023-11-18T00:28:32;3.90;;;3.50;;
23123;SDS011;11731;48.592;8.858;2023-11-18T00:31:07;6.07;;;3.40;;
23123;SDS011;11731;48.592;8.858;2023-11-18T00:33:36;6.00;;;4.07;;
23123;SDS011;11731;48.592;8.858;2023-11-18T00:39:32;10.27;;;4.77;;
23123;SDS011;11731;48.592;8.858;2023-11-18T00:42:21;5.73;;;3.90;;
23123;SDS011;11731;48.592;8.858;2023-11-18T00:44:58;4.27;;;3.10;;
23123;SDS011;11731;48.592;8.858;2023-11-18T00:47:28;4.20;;;2.90;;
23123;SDS011;11731;48.592;8.858;2023-11-18T00:49:55;5.27;;;3.33;;
23123;SDS011;11731;48.592;8.858;2023-11-18T00:52:24;2.87;;;2.53;;
23123;SDS011;11731;48.592;8.858;2023-11-18T00:55:05;4.87;;;2.83;;
23123;SDS011;11731;48.592;8.858;2023-11-18T00:57:32;4.67;;;2.93;;
23123;SDS011;11731;48.592;8.858;2023-11-18T00:59:59;3.00;;;2.70;;
23123;SDS011;11731;48.592;8.858;2023-11-18T01:02:41;5.50;;;2.93;;
23123;SDS011;11731;48.592;8.858;2023-11-18T01:05:12;4.97;;;3.17;;
23123;SDS011;11731;48.592;8.858;2023-11-18T01:07:51;3.40;;;2.97;;
23123;SDS011;11731;48.592;8.858;2023-11-18T01:10:18;3.83;;;3.20;;
23123;SDS011;11731;48.592;8.858;2023-11-18T01:12:45;4.67;;;2.43;;
23123;SDS011;11731;48.592;8.858;2023-11-18T01:15:11;2.73;;;2.47;;
23123;SDS011;11731;48.592;8.858;2023-11-18T01:17:39;3.37;;;2.40;;
23123;SDS011;11731;48.592;8.858;2023-11-18T01:20:06;3.90;;;2.53;;
23123;SDS011;11731;48.592;8.858;2023-11-18T01:22:35;2.63;;;2.37;;
23123;SDS011;11731;48.592;8.858;2023-11-18T01:27:59;2.60;;;2.37;;
23123;SDS011;11731;48.592;8.858;2023-11-18T01:33:29;3.80;;;2.40;;
23123;SDS011;11731;48.592;8.858;2023-11-18T01:35:57;3.47;;;2.30;;
23123;SDS011;11731;48.592;8.858;2023-11-18T01:38:30;4.53;;;2.57;;
23123;SDS011;11731;48.592;8.858;2023-11-18T01:41:13;4.10;;;2.47;;
23123;SDS011;11731;48.592;8.858;2023-11-18T01:43:40;2.90;;;2.30;;
23123;SDS011;11731;48.592;8.858;2023-11-18T01:46:08;3.70;;;2.67;;
23123;SDS011;11731;48.592;8.858;2023-11-18T01:48:38;3.37;;;2.57;;
23123;SDS011;11731;48.592;8.858;2023-11-18T01:51:07;3.07;;;2.63;;
23123;SDS011;11731;48.592;8.858;2023-11-18T01:53:35;3.33;;;2.50;;
23123;SDS011;11731;48.592;8.858;2023-11-18T01:56:03;4.40;;;2.83;;
23123;SDS011;11731;48.592;8.858;2023-11-18T01:58:33;3.77;;;2.40;;
23123;SDS011;11731;48.592;8.858;2023-11-18T02:01:00;3.23;;;2.60;;
23123;SDS011;11731;48.592;8.858;2023-11-18T02:03:28;3.63;;;2.50;;
23123;SDS011;11731;48.592;8.858;2023-11-18T02:05:55;3.97;;;2.30;;
23123;SDS011;11731;48.592;8.858;2023-11-18T02:08:22;3.60;;;2.80;;
23123;SDS011;11731;48.592;8.858;2023-11-18T02:10:54;3.23;;;2.63;;
23123;SDS011;11731;48.592;8.858;2023-11-18T02:13:27;3.50;;;2.53;;
23123;SDS011;11731;48.592;8.858;2023-11-18T02:15:58;3.03;;;2.73;;
23123;SDS011;11731;48.592;8.858;2023-11-18T02:18:26;3.37;;;2.60;;
23123;SDS011;11731;48.592;8.858;2023-11-18T02:20:56;3.60;;;2.70;;
23123;SDS011;11731;48.592;8.858;2023-11-18T02:23:25;3.00;;;2.43;;
23123;SDS011;11731;48.592;8.858;2023-11-18T02:25:54;3.43;;;2.57;;
23123;SDS011;11731;48.592;8.858;2023-11-18T02:28:21;4.23;;;2.40;;
23123;SDS011;11731;48.592;8.858;2023-11-18T02:30:48;2.20;;;2.00;;
23123;SDS011;11731;48.592;8.858;2023-11-18T02:33:24;3.33;;;2.90;;
23123;SDS011;11731;48.592;8.858;2023-11-18T02:35:59;3.10;;;2.67;;
23123;SDS011;11731;48.592;8.858;2023-11-18T02:38:35;2.80;;;2.50;;
23123;SDS011;11731;48.592;8.858;2023-11-18T02:41:12;2.50;;;2.10;;
23123;SDS011;11731;48.592;8.858;2023-11-18T02:43:40;2.50;;;2.23;;
23123;SDS011;11731;48.592;8.858;2023-11-18T02:46:10;5.73;;;2.83;;
23123;SDS011;11731;48.592;8.858;2023-11-18T02:48:37;3.97;;;2.70;;
23123;SDS011;11731;48.592;8.858;2023-11-18T02:53:53;3.10;;;2.67;;
23123;SDS011;11731;48.592;8.858;2023-11-18T02:56:21;3.37;;;2.80;;
23123;SDS011;11731;48.592;8.858;2023-11-18T02:58:48;3.50;;;2.60;;
23123;SDS011;11731;48.592;8.858;2023-11-18T03:01:21;3.20;;;2.40;;
23123;SDS011;11731;48.592;8.858;2023-11-18T03:03:50;3.53;;;2.97;;
23123;SDS011;11731;48.592;8.858;2023-11-18T03:06:29;3.63;;;2.63;;
23123;SDS011;11731;48.592;8.858;2023-11-18T03:08:57;3.67;;;2.93;;
23123;SDS011;11731;48.592;8.858;2023-11-18T03:11:34;4.00;;;2.77;;
23123;SDS011;11731;48.592;8.858;2023-11-18T03:14:01;4.40;;;3.20;;
23123;SDS011;11731;48.592;8.858;2023-11-18T03:17:38;3.67;;;2.97;;
23123;SDS011;11731;48.592;8.858;2023-11-18T03:19:45;3.07;;;2.53;;
23123;SDS011;11731;48.592;8.858;2023-11-18T03:22:12;3.60;;;2.77;;
23123;SDS011;11731;48.592;8.858;2023-11-18T03:24:39;4.63;;;2.83;;
23123;SDS011;11731;48.592;8.858;2023-11-18T03:27:07;5.00;;;2.80;;
23123;SDS011;11731;48.592;8.858;2023-11-18T03:29:34;2.70;;;2.37;;
23123;SDS011;11731;48.592;8.858;2023-11-18T03:32:03;3.00;;;2.70;;
23123;SDS011;11731;48.592;8.858;2023-11-18T03:34:51;2.63;;;2.43;;
23123;SDS011;11731;48.592;8.858;2023-11-18T03:37:19;3.23;;;2.50;;
23123;SDS011;11731;48.592;8.858;2023-11-18T03:40:08;2.83;;;2.50;;
23123;SDS011;11731;48.592;8.858;2023-11-18T03:42:37;5.40;;;2.80;;
23123;SDS011;11731;48.592;8.858;2023-11-18T03:45:11;5.07;;;2.67;;
23123;SDS011;11731;48.592;8.858;2023-11-18T03:47:43;6.60;;;2.93;;
23123;SDS011;11731;48.592;8.858;2023-11-18T03:50:10;4.67;;;2.80;;
23123;SDS011;11731;48.592;8.858;2023-11-18T03:52:38;3.83;;;2.47;;
23123;SDS011;11731;48.592;8.858;2023-11-18T03:55:05;2.20;;;1.80;;
23123;SDS011;11731;48.592;8.858;2023-11-18T03:57:33;3.40;;;2.40;;
23123;SDS011;11731;48.592;8.858;2023-11-18T04:00:01;2.93;;;2.13;;
23123;SDS011;11731;48.592;8.858;2023-11-18T04:02:29;4.37;;;1.97;;
23123;SDS011;11731;48.592;8.858;2023-11-18T04:04:56;2.60;;;2.07;;
23123;SDS011;11731;48.592;8.858;2023-11-18T04:07:23;4.20;;;2.23;;
23123;SDS011;11731;48.592;8.858;2023-11-18T04:09:50;3.43;;;2.47;;
23123;SDS011;11731;48.592;8.858;2023-11-18T04:12:17;2.70;;;1.90;;
23123;SDS011;11731;48.592;8.858;2023-11-18T04:14:44;2.90;;;2.03;;
23123;SDS011;11731;48.592;8.858;2023-11-18T04:17:12;2.60;;;2.17;;
23123;SDS011;11731;48.592;8.858;2023-11-18T04:19:39;2.70;;;2.13;;
23123;SDS011;11731;48.592;8.858;2023-11-18T04:22:12;4.00;;;3.17;;
23123;SDS011;11731;48.592;8.858;2023-11-18T04:24:39;3.83;;;3.07;;
23123;SDS011;11731;48.592;8.858;2023-11-18T04:27:07;4.93;;;3.53;;
23123;SDS011;11731;48.592;8.858;2023-11-18T04:29:34;5.10;;;3.70;;
23123;SDS011;11731;48.592;8.858;2023-11-18T04:32:02;4.37;;;3.97;;
23123;SDS011;11731;48.592;8.858;2023-11-18T04:34:31;4.37;;;3.40;;
23123;SDS011;11731;48.592;8.858;2023-11-18T04:36:58;5.30;;;4.27;;
23123;SDS011;11731;48.592;8.858;2023-11-18T04:39:36;7.03;;;4.03;;
23123;SDS011;11731;48.592;8.858;2023-11-18T04:42:03;5.10;;;3.67;;
23123;SDS011;11731;48.592;8.858;2023-11-18T04:44:30;5.33;;;4.13;;
23123;SDS011;11731;48.592;8.858;2023-11-18T04:46:57;3.90;;;3.57;;
23123;SDS011;11731;48.592;8.858;2023-11-18T04:50:31;4.90;;;3.97;;
23123;SDS011;11731;48.592;8.858;2023-11-18T04:52:41;4.40;;;3.60;;
23123;SDS011;11731;48.592;8.858;2023-11-18T04:55:08;5.13;;;4.03;;
23123;SDS011;11731;48.592;8.858;2023-11-18T04:57:38;4.43;;;3.37;;
23123;SDS011;11731;48.592;8.858;2023-11-18T05:00:05;4.27;;;3.60;;
23123;SDS011;11731;48.592;8.858;2023-11-18T05:02:37;5.00;;;3.53;;
23123;SDS011;11731;48.592;8.858;2023-11-18T05:05:04;5.03;;;3.50;;
23123;SDS011;11731;48.592;8.858;2023-11-18T05:07:32;4.03;;;3.10;;
23123;SDS011;11731;48.592;8.858;2023-11-18T05:10:01;6.00;;;4.73;;
23123;SDS011;11731;48.592;8.858;2023-11-18T05:12:29;3.23;;;2.93;;
23123;SDS011;11731;48.592;8.858;2023-11-18T05:14:56;4.10;;;3.47;;
23123;SDS011;11731;48.592;8.858;2023-11-18T05:17:54;4.17;;;3.53;;
23123;SDS011;11731;48.592;8.858;2023-11-18T05:20:21;4.33;;;3.57;;
23123;SDS011;11731;48.592;8.858;2023-11-18T05:23:29;6.33;;;3.63;;
23123;SDS011;11731;48.592;8.858;2023-11-18T05:25:56;9.90;;;3.90;;
23123;SDS011;11731;48.592;8.858;2023-11-18T05:28:23;20.03;;;5.00;;
23123;SDS011;11731;48.592;8.858;2023-11-18T05:30:52;19.03;;;4.80;;
23123;SDS011;11731;48.592;8.858;2023-11-18T05:33:37;31.03;;;5.30;;
23123;SDS011;11731;48.592;8.858;2023-11-18T05:36:04;18.23;;;4.87;;
23123;SDS011;11731;48.592;8.858;2023-11-18T05:38:32;42.00;;;5.93;;
23123;SDS011;11731;48.592;8.858;2023-11-18T05:41:02;37.13;;;5.67;;
23123;SDS011;11731;48.592;8.858;2023-11-18T05:43:33;27.93;;;4.67;;
23123;SDS011;11731;48.592;8.858;2023-11-18T05:46:10;31.27;;;5.73;;
23123;SDS011;11731;48.592;8.858;2023-11-18T05:48:45;55.67;;;5.90;;
23123;SDS011;11731;48.592;8.858;2023-11-18T05:51:13;32.03;;;6.03;;
23123;SDS011;11731;48.592;8.858;2023-11-18T05:53:40;42.13;;;6.23;;
23123;SDS011;11731;48.592;8.858;2023-11-18T05:56:23;29.63;;;5.53;;
23123;SDS011;11731;48.592;8.858;2023-11-18T06:01:49;14.83;;;4.40;;
23123;SDS011;11731;48.592;8.858;2023-11-18T06:04:16;14.90;;;4.50;;
23123;SDS011;11731;48.592;8.858;2023-11-18T06:06:43;26.07;;;5.07;;
23123;SDS011;11731;48.592;8.858;2023-11-18T06:09:10;17.13;;;4.07;;
23123;SDS011;11731;48.592;8.858;2023-11-18T06:11:47;13.67;;;3.90;;
23123;SDS011;11731;48.592;8.858;2023-11-18T06:14:14;12.93;;;3.47;;
23123;SDS011;11731;48.592;8.858;2023-11-18T06:16:43;11.00;;;3.00;;
23123;SDS011;11731;48.592;8.858;2023-11-18T06:19:13;20.20;;;3.50;;
23123;SDS011;11731;48.592;8.858;2023-11-18T06:21:53;19.40;;;3.13;;
23123;SDS011;11731;48.592;8.858;2023-11-18T06:24:20;19.27;;;4.03;;
23123;SDS011;11731;48.592;8.858;2023-11-18T06:26:49;19.20;;;3.97;;
23123;SDS011;11731;48.592;8.858;2023-11-18T06:29:16;10.37;;;4.23;;
23123;SDS011;11731;48.592;8.858;2023-11-18T06:31:43;6.50;;;4.23;;
23123;SDS011;11731;48.592;8.858;2023-11-18T06:34:10;9.03;;;4.73;;
23123;SDS011;11731;48.592;8.858;2023-11-18T06:36:37;6.17;;;4.50;;
23123;SDS011;11731;48.592;8.858;2023-11-18T06:39:05;6.27;;;4.30;;
23123;SDS011;11731;48.592;8.858;2023-11-18T06:41:34;4.93;;;3.97;;
23123;SDS011;11731;48.592;8.858;2023-11-18T06:44:04;5.30;;;4.03;;
23123;SDS011;11731;48.592;8.858;2023-11-18T06:46:37;7.17;;;4.40;;
23123;SDS011;11731;48.592;8.858;2023-11-18T06:49:05;4.57;;;3.90;;
23123;SDS011;11731;48.592;8.858;2023-11-18T06:51:33;5.90;;;4.30;;
23123;SDS011;11731;48.592;8.858;2023-11-18T06:57:02;6.37;;;4.40;;
23123;SDS011;11731;48.592;8.858;2023-11-18T06:59:31;6.57;;;5.03;;
23123;SDS011;11731;48.592;8.858;2023-11-18T07:01:58;8.70;;;4.70;;
23123;SDS011;11731;48.592;8.858;2023-11-18T07:04:25;6.17;;;4.93;;
23123;SDS011;11731;48.592;8.858;2023-11-18T07:07:02;6.37;;;4.63;;
23123;SDS011;11731;48.592;8.858;2023-11-18T07:09:29;6.83;;;5.13;;
23123;SDS011;11731;48.592;8.858;2023-11-18T07:12:01;5.33;;;4.40;;
23123;SDS011;11731;48.592;8.858;2023-11-18T07:14:28;6.60;;;5.17;;
23123;SDS011;11731;48.592;8.858;2023-11-18T07:16:57;6.97;;;5.17;;
23123;SDS011;11731;48.592;8.858;2023-11-18T07:19:24;7.63;;;5.33;;
23123;SDS011;11731;48.592;8.858;2023-11-18T07:21:51;9.13;;;5.30;;
23123;SDS011;11731;48.592;8.858;2023-11-18T07:24:18;7.83;;;5.77;;
23123;SDS011;11731;48.592;8.858;2023-11-18T07:27:06;8.77;;;5.87;;
23123;SDS011;11731;48.592;8.858;2023-11-18T07:29:37;8.83;;;5.77;;
23123;SDS011;11731;48.592;8.858;2023-11-18T07:32:13;7.70;;;5.70;;
23123;SDS011;11731;48.592;8.858;2023-11-18T07:34:46;6.67;;;5.10;;
23123;SDS011;11731;48.592;8.858;2023-11-18T07:37:28;6.57;;;5.10;;
23123;SDS011;11731;48.592;8.858;2023-11-18T07:39:58;5.77;;;4.67;;
23123;SDS011;11731;48.592;8.858;2023-11-18T07:42:25;6.77;;;5.20;;
23123;SDS011;11731;48.592;8.858;2023-11-18T07:44:54;6.33;;;4.90;;
23123;SDS011;11731;48.592;8.858;2023-11-18T07:47:22;8.17;;;5.53;;
23123;SDS011;11731;48.592;8.858;2023-11-18T07:49:49;6.80;;;4.83;;
23123;SDS011;11731;48.592;8.858;2023-11-18T07:52:16;6.03;;;4.60;;
23123;SDS011;11731;48.592;8.858;2023-11-18T07:54:42;6.93;;;5.23;;
23123;SDS011;11731;48.592;8.858;2023-11-18T07:58:18;6.40;;;4.73;;
23123;SDS011;11731;48.592;8.858;2023-11-18T08:00:36;5.57;;;4.17;;
23123;SDS011;11731;48.592;8.858;2023-11-18T08:03:04;6.23;;;4.07;;
23123;SDS011;11731;48.592;8.858;2023-11-18T08:05:44;5.20;;;4.17;;
23123;SDS011;11731;48.592;8.858;2023-11-18T08:08:11;7.27;;;3.97;;
23123;SDS011;11731;48.592;8.858;2023-11-18T08:10:42;6.50;;;4.17;;
23123;SDS011;11731;48.592;8.858;2023-11-18T08:13:09;8.43;;;4.43;;
23123;SDS011;11731;48.592;8.858;2023-11-18T08:15:40;6.67;;;4.10;;
23123;SDS011;11731;48.592;8.858;2023-11-18T08:18:10;5.27;;;3.90;;
23123;SDS011;11731;48.592;8.858;2023-11-18T08:20:39;4.97;;;4.00;;
23123;SDS011;11731;48.592;8.858;2023-11-18T08:23:08;5.40;;;4.57;;
23123;SDS011;11731;48.592;8.858;2023-11-18T08:25:36;5.53;;;4.03;;
23123;SDS011;11731;48.592;8.858;2023-11-18T08:28:05;5.53;;;4.17;;
23123;SDS011;11731;48.592;8.858;2023-11-18T08:30:33;5.70;;;4.03;;
23123;SDS011;11731;48.592;8.858;2023-11-18T08:33:01;5.03;;;4.20;;
23123;SDS011;11731;48.592;8.858;2023-11-18T08:35:29;4.70;;;4.20;;
23123;SDS011;11731;48.592;8.858;2023-11-18T08:37:56;7.37;;;4.53;;
23123;SDS011;11731;48.592;8.858;2023-11-18T08:40:26;5.17;;;3.23;;
23123;SDS011;11731;48.592;8.858;2023-11-18T08:43:46;5.07;;;3.20;;
23123;SDS011;11731;48.592;8.858;2023-11-18T08:45:58;5.03;;;3.47;;
23123;SDS011;11731;48.592;8.858;2023-11-18T08:48:26;3.70;;;3.03;;
23123;SDS011;11731;48.592;8.858;2023-11-18T08:50:53;4.77;;;3.47;;
23123;SDS011;11731;48.592;8.858;2023-11-18T08:53:20;4.63;;;3.33;;
23123;SDS011;11731;48.592;8.858;2023-11-18T08:55:51;4.37;;;3.30;;
23123;SDS011;11731;48.592;8.858;2023-11-18T08:58:19;4.80;;;3.67;;
23123;SDS011;11731;48.592;8.858;2023-11-18T09:00:47;4.10;;;2.63;;
23123;SDS011;11731;48.592;8.858;2023-11-18T09:03:18;4.57;;;3.07;;
23123;SDS011;11731;48.592;8.858;2023-11-18T09:05:55;3.93;;;3.23;;
23123;SDS011;11731;48.592;8.858;2023-11-18T09:08:24;3.57;;;2.70;;
23123;SDS011;11731;48.592;8.858;2023-11-18T09:10:52;3.90;;;3.30;;
23123;SDS011;11731;48.592;8.858;2023-11-18T09:13:20;3.90;;;3.10;;
23123;SDS011;11731;48.592;8.858;2023-11-18T09:15:48;4.13;;;3.47;;
23123;SDS011;11731;48.592;8.858;2023-11-18T09:18:17;4.67;;;3.00;;
23123;SDS011;11731;48.592;8.858;2023-11-18T09:21:50;2.93;;;2.63;;
23123;SDS011;11731;48.592;8.858;2023-11-18T09:23:55;3.37;;;2.40;;
23123;SDS011;11731;48.592;8.858;2023-11-18T09:26:22;3.13;;;2.83;;
23123;SDS011;11731;48.592;8.858;2023-11-18T09:28:50;6.43;;;2.73;;
23123;SDS011;11731;48.592;8.858;2023-11-18T09:31:17;3.00;;;2.70;;
23123;SDS011;11731;48.592;8.858;2023-11-18T09:33:46;4.20;;;2.80;;
23123;SDS011;11731;48.592;8.858;2023-11-18T09:36:17;7.03;;;2.80;;
23123;SDS011;11731;48.592;8.858;2023-11-18T09:38:44;4.10;;;2.87;;
23123;SDS011;11731;48.592;8.858;2023-11-18T09:48:44;3.80;;;2.50;;
23123;SDS011;11731;48.592;8.858;2023-11-18T09:51:15;2.40;;;2.20;;
23123;SDS011;11731;48.592;8.858;2023-11-18T09:53:48;2.50;;;2.20;;
23123;SDS011;11731;48.592;8.858;2023-11-18T09:56:18;3.57;;;2.80;;
23123;SDS011;11731;48.592;8.858;2023-11-18T09:59:05;2.80;;;2.40;;
23123;SDS011;11731;48.592;8.858;2023-11-18T10:01:40;2.30;;;2.10;;
23123;SDS011;11731;48.592;8.858;2023-11-18T10:04:10;3.97;;;2.30;;
23123;SDS011;11731;48.592;8.858;2023-11-18T10:06:38;2.90;;;2.33;;
23123;SDS011;11731;48.592;8.858;2023-11-18T10:09:12;3.30;;;2.47;;
23123;SDS011;11731;48.592;8.858;2023-11-18T10:11:54;2.93;;;2.13;;
23123;SDS011;11731;48.592;8.858;2023-11-18T10:14:25;2.37;;;2.17;;
23123;SDS011;11731;48.592;8.858;2023-11-18T10:16:52;3.37;;;2.30;;
23123;SDS011;11731;48.592;8.858;2023-11-18T10:19:21;2.60;;;2.40;;
23123;SDS011;11731;48.592;8.858;2023-11-18T10:21:56;2.13;;;1.93;;
23123;SDS011;11731;48.592;8.858;2023-11-18T10:24:28;2.73;;;2.20;;
23123;SDS011;11731;48.592;8.858;2023-11-18T10:27:33;3.57;;;2.00;;
23123;SDS011;11731;48.592;8.858;2023-11-18T10:30:03;2.07;;;1.87;;
23123;SDS011;11731;48.592;8.858;2023-11-18T10:32:43;2.63;;;1.97;;
23123;SDS011;11731;48.592;8.858;2023-11-18T10:35:33;2.93;;;1.90;;
23123;SDS011;11731;48.592;8.858;2023-11-18T10:38:11;2.07;;;1.87;;
23123;SDS011;11731;48.592;8.858;2023-11-18T10:40:43;2.57;;;1.87;;
23123;SDS011;11731;48.592;8.858;2023-11-18T10:43:26;2.17;;;1.97;;
23123;SDS011;11731;48.592;8.858;2023-11-18T10:46:03;1.83;;;1.70;;
23123;SDS011;11731;48.592;8.858;2023-11-18T10:48:36;1.60;;;1.50;;
23123;SDS011;11731;48.592;8.858;2023-11-18T10:51:07;2.10;;;1.23;;
23123;SDS011;11731;48.592;8.858;2023-11-18T10:53:37;2.07;;;1.60;;
23123;SDS011;11731;48.592;8.858;2023-11-18T10:56:04;1.90;;;1.70;;
23123;SDS011;11731;48.592;8.858;2023-11-18T10:58:44;2.17;;;1.50;;
23123;SDS011;11731;48.592;8.858;2023-11-18T11:01:25;1.93;;;1.37;;
23123;SDS011;11731;48.592;8.858;2023-11-18T11:04:08;1.97;;;1.20;;
23123;SDS011;11731;48.592;8.858;2023-11-18T11:06:40;1.43;;;1.33;;
23123;SDS011;11731;48.592;8.858;2023-11-18T11:09:08;1.70;;;1.60;;
23123;SDS011;11731;48.592;8.858;2023-11-18T11:11:44;4.23;;;1.40;;
23123;SDS011;11731;48.592;8.858;2023-11-18T11:14:14;4.40;;;1.40;;
23123;SDS011;11731;48.592;8.858;2023-11-18T11:16:53;1.57;;;1.40;;
23123;SDS011;11731;48.592;8.858;2023-11-18T11:19:42;1.93;;;1.43;;
23123;SDS011;11731;48.592;8.858;2023-11-18T11:22:45;2.77;;;1.67;;
23123;SDS011;11731;48.592;8.858;2023-11-18T11:25:21;2.57;;;2.00;;
23123;SDS011;11731;48.592;8.858;2023-11-18T11:28:00;1.63;;;1.53;;
23123;SDS011;11731;48.592;8.858;2023-11-18T11:31:07;1.37;;;1.27;;
23123;SDS011;11731;48.592;8.858;2023-11-18T11:33:37;1.70;;;1.60;;
23123;SDS011;11731;48.592;8.858;2023-11-18T11:36:09;1.60;;;1.50;;
23123;SDS011;11731;48.592;8.858;2023-11-18T11:38:42;1.70;;;1.60;;
23123;SDS011;11731;48.592;8.858;2023-11-18T11:41:11;2.83;;;1.80;;
23123;SDS011;11731;48.592;8.858;2023-11-18T11:43:44;2.30;;;1.77;;
23123;SDS011;11731;48.592;8.858;2023-11-18T11:46:50;1.60;;;1.50;;
23123;SDS011;11731;48.592;8.858;2023-11-18T11:49:19;4.07;;;1.57;;
23123;SDS011;11731;48.592;8.858;2023-11-18T11:51:54;3.27;;;1.70;;
23123;SDS011;11731;48.592;8.858;2023-11-18T11:54:31;1.47;;;1.30;;
23123;SDS011;11731;48.592;8.858;2023-11-18T11:57:10;1.83;;;1.47;;
23123;SDS011;11731;48.592;8.858;2023-11-18T11:59:55;2.00;;;1.50;;
23123;SDS011;11731;48.592;8.858;2023-11-18T12:02:24;2.13;;;1.33;;
23123;SDS011;11731;48.592;8.858;2023-11-18T12:04:54;1.30;;;1.20;;
23123;SDS011;11731;48.592;8.858;2023-11-18T12:07:24;1.47;;;1.37;;
23123;SDS011;11731;48.592;8.858;2023-11-18T12:09:57;4.57;;;1.73;;
23123;SDS011;11731;48.592;8.858;2023-11-18T12:12:40;1.50;;;1.40;;
23123;SDS011;11731;48.592;8.858;2023-11-18T12:15:07;4.27;;;2.00;;
23123;SDS011;11731;48.592;8.858;2023-11-18T12:20:42;4.17;;;1.90;;
23123;SDS011;11731;48.592;8.858;2023-11-18T12:23:12;1.93;;;1.67;;
23123;SDS011;11731;48.592;8.858;2023-11-18T12:25:41;4.03;;;1.70;;
23123;SDS011;11731;48.592;8.858;2023-11-18T12:28:10;3.83;;;1.60;;
23123;SDS011;11731;48.592;8.858;2023-11-18T12:30:41;3.43;;;1.90;;
23123;SDS011;11731;48.592;8.858;2023-11-18T12:33:17;2.33;;;1.50;;
23123;SDS011;11731;48.592;8.858;2023-11-18T12:36:03;1.93;;;1.40;;
23123;SDS011;11731;48.592;8.858;2023-11-18T12:39:20;2.07;;;1.40;;
23123;SDS011;11731;48.592;8.858;2023-11-18T12:42:30;3.33;;;1.80;;
23123;SDS011;11731;48.592;8.858;2023-11-18T12:45:41;3.10;;;1.70;;
23123;SDS011;11731;48.592;8.858;2023-11-18T12:48:29;3.37;;;1.63;;
23123;SDS011;11731;48.592;8.858;2023-11-18T12:51:03;1.90;;;1.73;;
23123;SDS011;11731;48.592;8.858;2023-11-18T12:54:08;2.23;;;1.73;;
23123;SDS011;11731;48.592;8.858;2023-11-18T12:56:29;2.30;;;1.70;;
23123;SDS011;11731;48.592;8.858;2023-11-18T12:58:59;1.63;;;1.50;;
23123;SDS011;11731;48.592;8.858;2023-11-18T13:01:26;3.47;;;1.73;;
23123;SDS011;11731;48.592;8.858;2023-11-18T13:03:53;2.37;;;1.60;;
23123;SDS011;11731;48.592;8.858;2023-11-18T13:06:20;5.73;;;1.83;;
23123;SDS011;11731;48.592;8.858;2023-11-18T13:09:14;3.30;;;1.87;;
23123;SDS011;11731;48.592;8.858;2023-11-18T13:11:51;2.83;;;1.70;;
23123;SDS011;11731;48.592;8.858;2023-11-18T13:14:22;2.07;;;1.50;;
23123;SDS011;11731;48.592;8.858;2023-11-18T13:17:11;2.23;;;1.70;;
23123;SDS011;11731;48.592;8.858;2023-11-18T13:19:40;4.60;;;1.80;;
23123;SDS011;11731;48.592;8.858;2023-11-18T13:22:09;2.33;;;1.80;;
23123;SDS011;11731;48.592;8.858;2023-11-18T13:24:37;2.23;;;1.90;;
23123;SDS011;11731;48.592;8.858;2023-11-18T13:27:05;2.97;;;1.67;;
23123;SDS011;11731;48.592;8.858;2023-11-18T13:29:36;2.00;;;1.83;;
23123;SDS011;11731;48.592;8.858;2023-11-18T13:32:05;2.10;;;1.80;;
23123;SDS011;11731;48.592;8.858;2023-11-18T13:34:34;5.70;;;2.30;;
23123;SDS011;11731;48.592;8.858;2023-11-18T13:37:16;2.77;;;2.00;;
23123;SDS011;11731;48.592;8.858;2023-11-18T13:39:52;3.13;;;2.17;;
23123;SDS011;11731;48.592;8.858;2023-11-18T13:42:20;3.13;;;2.20;;
23123;SDS011;11731;48.592;8.858;2023-11-18T13:44:49;4.27;;;2.53;;
23123;SDS011;11731;48.592;8.858;2023-11-18T13:47:17;3.77;;;2.33;;
23123;SDS011;11731;48.592;8.858;2023-11-18T13:49:45;3.00;;;2.20;;
23123;SDS011;11731;48.592;8.858;2023-11-18T13:52:15;3.13;;;2.30;;
23123;SDS011;11731;48.592;8.858;2023-11-18T13:54:44;3.20;;;2.60;;
23123;SDS011;11731;48.592;8.858;2023-11-18T13:57:20;3.37;;;2.80;;
23123;SDS011;11731;48.592;8.858;2023-11-18T14:00:23;3.17;;;2.30;;
23123;SDS011;11731;48.592;8.858;2023-11-18T14:05:41;4.93;;;2.70;;
23123;SDS011;11731;48.592;8.858;2023-11-18T14:08:10;3.90;;;2.50;;
23123;SDS011;11731;48.592;8.858;2023-11-18T14:13:27;4.23;;;3.00;;
23123;SDS011;11731;48.592;8.858;2023-11-18T14:15:57;2.87;;;2.57;;
23123;SDS011;11731;48.592;8.858;2023-11-18T14:18:25;2.77;;;2.10;;
23123;SDS011;11731;48.592;8.858;2023-11-18T14:20:57;4.23;;;1.97;;
23123;SDS011;11731;48.592;8.858;2023-11-18T14:23:52;3.67;;;1.93;;
23123;SDS011;11731;48.592;8.858;2023-11-18T14:27:01;2.73;;;2.20;;
23123;SDS011;11731;48.592;8.858;2023-11-18T14:29:22;3.47;;;2.30;;
23123;SDS011;11731;48.592;8.858;2023-11-18T14:31:50;7.50;;;2.27;;
23123;SDS011;11731;48.592;8.858;2023-11-18T14:36:59;2.67;;;2.13;;
23123;SDS011;11731;48.592;8.858;2023-11-18T14:39:27;2.47;;;2.00;;
23123;SDS011;11731;48.592;8.858;2023-11-18T14:42:00;4.17;;;2.63;;
23123;SDS011;11731;48.592;8.858;2023-11-18T14:44:42;3.20;;;2.40;;
23123;SDS011;11731;48.592;8.858;2023-11-18T14:47:11;4.67;;;2.80;;
23123;SDS011;11731;48.592;8.858;2023-11-18T14:49:38;2.20;;;1.87;;
23123;SDS011;11731;48.592;8.858;2023-11-18T14:52:05;3.10;;;2.10;;
23123;SDS011;11731;48.592;8.858;2023-11-18T15:01:43;1.70;;;1.60;;
23123;SDS011;11731;48.592;8.858;2023-11-18T15:04:08;2.43;;;1.70;;
23123;SDS011;11731;48.592;8.858;2023-11-18T15:06:35;2.40;;;1.80;;
23123;SDS011;11731;48.592;8.858;2023-11-18T15:09:03;2.90;;;2.07;;
23123;SDS011;11731;48.592;8.858;2023-11-18T15:11:30;2.67;;;1.80;;
23123;SDS011;11731;48.592;8.858;2023-11-18T15:13:58;2.27;;;1.90;;
23123;SDS011;11731;48.592;8.858;2023-11-18T15:16:26;2.97;;;2.03;;
23123;SDS011;11731;48.592;8.858;2023-11-18T15:18:53;3.60;;;2.00;;
23123;SDS011;11731;48.592;8.858;2023-11-18T15:21:23;5.70;;;2.30;;
23123;SDS011;11731;48.592;8.858;2023-11-18T15:23:50;4.27;;;2.37;;
23123;SDS011;11731;48.592;8.858;2023-11-18T15:26:24;3.07;;;2.13;;
23123;SDS011;11731;48.592;8.858;2023-11-18T15:28:51;4.37;;;2.80;;
23123;SDS011;11731;48.592;8.858;2023-11-18T15:31:18;3.33;;;2.70;;
23123;SDS011;11731;48.592;8.858;2023-11-18T15:33:46;3.50;;;2.10;;
23123;SDS011;11731;48.592;8.858;2023-11-18T15:39:09;2.80;;;2.37;;
23123;SDS011;11731;48.592;8.858;2023-11-18T15:41:39;3.40;;;2.30;;
23123;SDS011;11731;48.592;8.858;2023-11-18T15:44:16;3.57;;;2.73;;
23123;SDS011;11731;48.592;8.858;2023-11-18T15:46:49;2.70;;;2.03;;
23123;SDS011;11731;48.592;8.858;2023-11-18T15:52:39;5.33;;;3.83;;
23123;SDS011;11731;48.592;8.858;2023-11-18T15:58:06;5.43;;;2.80;;
23123;SDS011;11731;48.592;8.858;2023-11-18T16:06:04;4.63;;;3.47;;
23123;SDS011;11731;48.592;8.858;2023-11-18T16:08:36;6.13;;;3.00;;
23123;SDS011;11731;48.592;8.858;2023-11-18T16:11:03;3.97;;;2.50;;
23123;SDS011;11731;48.592;8.858;2023-11-18T16:14:10;3.70;;;2.60;;
23123;SDS011;11731;48.592;8.858;2023-11-18T16:16:33;2.93;;;2.67;;
23123;SDS011;11731;48.592;8.858;2023-11-18T16:21:50;4.10;;;1.87;;
23123;SDS011;11731;48.592;8.858;2023-11-18T16:24:19;4.90;;;2.17;;
23123;SDS011;11731;48.592;8.858;2023-11-18T16:26:46;3.03;;;2.00;;
23123;SDS011;11731;48.592;8.858;2023-11-18T16:29:13;4.03;;;2.17;;
23123;SDS011;11731;48.592;8.858;2023-11-18T16:31:42;2.40;;;1.83;;
23123;SDS011;11731;48.592;8.858;2023-11-18T16:34:09;2.13;;;1.87;;